Flight Track Log - Related Links

Times and Time Zones

All times are in EDT time to prevent confusion due to time zone crossing. See the SWA1034 flight status page for this flight to view local times or setup timezone preferences in your user account.

Time Position Orientation Groundspeed Altitude Reporting Facility
EDT Latitude Longitude Course Direction KTS MPH feet Rate Location/Type
Sun 09:19:41 PM 38.7333 -90.2500 90° East 229 264 3,300  Level Gateway (St. Louis) TRACON
Sun 09:21:05 PM 38.7319 -90.1347 91° East 265 305 7,700 3,145 Climbing Kansas City Center
Sun 09:22:06 PM 38.7425 -90.0344 82° East 281 323 10,900 3,000 Climbing Kansas City Center
Sun 09:23:07 PM 38.7547 -89.9083 83° East 347 399 13,800 3,145 Climbing Kansas City Center
Sun 09:24:00 PM 38.7592 -89.7398 84° East  Level FlightAware Approximate
Sun 09:24:10 PM 38.7669 -89.7797 83° East 358 412 17,400  Level Kansas City Center
Sun 09:25:12 PM 38.7794 -89.6408 83° East 385 443 20,000 2,951 Climbing Kansas City Center
Sun 09:26:12 PM 38.7969 -89.4647 83° East 411 473 23,400 2,754 Climbing Kansas City Center
Sun 09:27:14 PM 38.8178 -89.3117 80° East 434 499 25,600 2,115 Climbing Kansas City Center
Sun 09:28:14 PM 38.8375 -89.1508 81° East 455 524 27,700 2,262 Climbing Kansas City Center
Sun 09:29:16 PM 38.8575 -88.9858 81° East 463 533 30,200 2,429 Climbing Kansas City Center
Sun 09:30:20 PM 38.8792 -88.8239 80° East 464 534 32,800 1,355 Climbing Kansas City Center
Sun 09:31:20 PM 38.9278 -88.6806 66° East 441 507 33,000 99 Climbing Kansas City Center
Sun 09:32:21 PM 38.9883 -88.5300 63° Northeast 451 519 33,000  Level Kansas City Center
Sun 09:33:25 PM 39.0467 -88.3803 63° Northeast 461 531 33,000  Level Kansas City Center
Sun 09:34:25 PM 39.1056 -88.2325 63° Northeast 461 531 33,000  Level Kansas City Center
Sun 09:35:18 PM 39.1614 -88.0869 64° Northeast 460 529 33,000  Level Indianapolis Center
Sun 09:36:19 PM 39.2200 -87.9372 63° Northeast 460 529 33,000  Level Indianapolis Center
Sun 09:37:21 PM 39.2781 -87.7872 63° Northeast 461 531 33,000  Level Indianapolis Center
Sun 09:38:22 PM 39.3372 -87.6333 64° Northeast 461 531 33,000  Level Indianapolis Center
Sun 09:39:24 PM 39.3942 -87.4844 64° Northeast 462 532 33,000  Level Indianapolis Center
Sun 09:40:25 PM 39.4514 -87.3342 64° Northeast 462 532 33,000  Level Indianapolis Center
Sun 09:41:27 PM 39.5086 -87.1847 64° Northeast 462 532 33,000  Level Indianapolis Center
Sun 09:42:28 PM 39.5658 -87.0350 64° Northeast 462 532 33,000  Level Indianapolis Center
Sun 09:43:30 PM 39.6328 -86.8561 64° Northeast 463 533 33,000  Level Indianapolis Center
Sun 09:44:31 PM 39.6892 -86.7069 64° Northeast 462 532 33,000  Level Indianapolis Center
Sun 09:45:32 PM 39.7444 -86.5581 64° Northeast 461 531 33,000  Level Indianapolis Center
Sun 09:46:34 PM 39.8269 -86.4369 48° Northeast 449 517 33,000  Level Indianapolis Center
Sun 09:47:35 PM 39.9225 -86.3353 39° Northeast 439 505 33,000  Level Indianapolis Center
Sun 09:48:36 PM 40.0175 -86.2347 39° Northeast 437 503 33,000  Level Indianapolis Center
Sun 09:49:38 PM 40.1114 -86.1344 39° Northeast 437 503 33,000 -422 Level Indianapolis Center
Sun 09:50:44 PM 40.2047 -86.0325 40° Northeast 436 502 32,100 -938 Descending Chicago Center
Sun 09:51:46 PM 40.3164 -85.9136 39° Northeast 434 499 31,000 -537 Descending Chicago Center
Sun 09:52:47 PM 40.4089 -85.8131 40° Northeast 434 499 31,000  Level Chicago Center
Sun 09:53:49 PM 40.5022 -85.7128 39° Northeast 433 498 31,000  Level Chicago Center
Sun 09:54:50 PM 40.5942 -85.6122 40° Northeast 433 498 31,000  Level Chicago Center
Sun 09:55:51 PM 40.6936 -85.5033 40° Northeast 432 497 31,000 -878 Level Chicago Center
Sun 09:56:53 PM 40.7853 -85.4042 39° Northeast 431 496 29,200 -2,098 Descending Chicago Center
Sun 09:57:54 PM 40.8728 -85.3022 41° Northeast 427 491 26,700 -2,341 Descending Chicago Center
Sun 09:58:56 PM 40.9592 -85.2067 40° Northeast 414 476 24,400 -1,512 Descending Chicago Center
Sun 09:59:57 PM 41.0444 -85.1158 39° Northeast 401 461 23,600 -878 Descending Chicago Center
Sun 10:00:59 PM 41.1281 -85.0269 39° Northeast 394 453 22,600 -1,024 Descending Chicago Center
Sun 10:02:00 PM 41.2103 -84.9378 39° Northeast 388 447 21,500 -787 Descending Chicago Center
Sun 10:03:01 PM 41.3086 -84.8336 38° Northeast 383 441 21,000 -244 Descending Chicago Center
Sun 10:04:03 PM 41.3886 -84.7461 39° Northeast 381 438 21,000  Level Chicago Center
Sun 10:05:04 PM 41.4681 -84.6614 39° Northeast 370 426 21,000  Level Chicago Center
Sun 10:06:05 PM 41.5469 -84.5758 39° Northeast 370 426 21,000 -585 Level Chicago Center
Sun 10:07:07 PM 41.6256 -84.4894 39° Northeast 369 425 19,800 -1,415 Descending Chicago Center
Sun 10:08:08 PM 41.6883 -84.3922 49° Northeast 356 410 18,100 -1,770 Descending Chicago Center
Sun 10:09:09 PM 41.7342 -84.2764 62° Northeast 353 406 16,200 -1,951 Descending Chicago Center
Sun 10:10:11 PM 41.7792 -84.1603 63° Northeast 353 406 14,100 -2,049 Descending Chicago Center
Sun 10:11:12 PM 41.8425 -84.0444 54° Northeast 327 376 12,000 -1,033 Descending Chicago Center
Sun 10:12:13 PM 41.9003 -83.9614 47° Northeast 312 359 12,000  Level Chicago Center
Sun 10:12:52 PM 41.9406 -83.9053 46° Northeast 305 351 12,000  Level Cleveland Center
Sun 10:13:34 PM 41.9828 -83.8497 44° Northeast 307 353 12,000  Level Cleveland Center
Sun 10:13:35 PM 41.9814 -83.8497 180° South 308 354 12,000  Level Cleveland Center
Sun 10:14:35 PM 42.0425 -83.7631 46° Northeast 304 350 12,000  Level Cleveland Center
Sun 10:14:36 PM 42.0397 -83.7667 224° Southwest 308 354 12,000  Level Cleveland Center
Sun 10:15:36 PM 42.0969 -83.6839 47° Northeast 285 328 12,000  Level Cleveland Center
Sun 10:15:38 PM 42.0939 -83.6894 233° Southwest 291 335 12,000 -1,745 Level Cleveland Center
Sun 10:16:31 PM 42.1464 -83.6178 45° Northeast 270 311 10,400 -1,574 Descending Cleveland Center
Sun 10:16:39 PM 42.1475 -83.6156 56° Northeast 281 323 10,400 -1,800 Level Cleveland Center
Sun 10:17:41 PM 42.2097 -83.5522 37° Northeast 273 314 8,300 -2,229 Descending Cleveland Center
Sun 10:17:49 PM 42.2242 -83.5361 40° Northeast 264 304 7,800 -1,770 Descending Cleveland Center
Sun 10:18:42 PM 42.2681 -83.4928 36° Northeast 263 303 6,500 -1,636 Descending Cleveland Center
Sun 10:18:44 PM 42.2719 -83.4892 34° Northeast 255 293 6,300 -1,645 Descending Cleveland Center
Sun 10:19:44 PM 42.3261 -83.4339 37° Northeast 257 296 4,800 -1,475 Descending Cleveland Center
Sun 10:19:45 PM 42.3311 -83.4300 30° Northeast 239 275 4,800 -885 Level Cleveland Center
Sun 10:20:45 PM 42.3447 -83.3642 74° East 194 223 3,900 -1,087 Descending Cleveland Center
Sun 10:21:52 PM 42.3039 -83.3217 142° Southeast 151 174 2,500 -1,082 Descending Cleveland Center
Sun 10:22:47 PM 42.2692 -83.3367 198° South 142 163 1,700 -750 Descending Cleveland Center
Sun 10:22:48 PM 42.2742 -83.3297 46° Northeast 160 184 1,800 -667 Climbing Cleveland Center
Sun 10:23:50 PM 42.2394 -83.3567 210° Southwest 148 170 1,000 -909 Descending Cleveland Center
Sun 10:23:54 PM 42.2294 -83.3619 201° Southwest 141 162 800 -3,000 Descending Cleveland Center

Login

Don't have an account? Register now (free) for customized features, flight alerts, and more!